Overview Statistics Trail Chart Weather Telemetry Raw packets
 

This is the latest recevied weather packets stored in our database for station/object DL4MGC-10. If no packets are shown the sender has not sent any weather packets the latest 10 day(s).

<< 11 12 13 14 15 16 17 >>
Time Temp. Humidity Pressure Rain* Wind** Luminosity Snow
1788420438 20° C 74% 1022.6 hPa - - - -
1788419538 20° C 74% 1022.7 hPa - - - -
1788418637 20.56° C 76% 1022.8 hPa - - - -
1788417737 18.89° C 81% 1023.1 hPa - - - -
1788416837 17.22° C 89% 1023.1 hPa - - - -
1788415937 17.78° C 87% 1022.8 hPa - - - -
1788415037 16.11° C 94% 1022.6 hPa - - - -
1788414137 16.11° C 93% 1022.5 hPa - - - -
1788413237 14.44° C 100% 1022.3 hPa - - - -
1788412337 15° C 96% 1022.4 hPa - - - -
1788411437 14.44° C 98% 1022.3 hPa - - - -
1788410537 14.44° C 99% 1022.3 hPa - - - -
1788409636 15° C 96% 1022.3 hPa - - - -
1788408736 14.44° C 98% 1022.3 hPa - - - -
1788407836 13.89° C 100% 1022.2 hPa - - - -
1788406936 15° C 96% 1022.2 hPa - - - -
1788406036 14.44° C 98% 1022.1 hPa - - - -
1788405136 15° C 95% 1022.2 hPa - - - -
1788404236 15° C 96% 1022.2 hPa - - - -
1788403336 15° C 94% 1022.3 hPa - - - -
1788402436 15.56° C 93% 1022.2 hPa - - - -
1788401536 15° C 97% 1022.2 hPa - - - -
1788400635 16.11° C 93% 1022.1 hPa - - - -
1788399735 16.67° C 89% 1022.1 hPa - - - -
1788398835 16.11° C 91% 1022.1 hPa - - - -

* Rain since midnight (hover to see other rain measurements)
** Current wind speed in m/s (hover to see current wind gust speed)